Time;durP1;ratioP1;P1;durP2;ratioP2;P2;SDS_P1;SDS_P2;PMS_P1;PMS_P2;Temp;Humidity;BMP_temperature;BMP_pressure;BME280_temperature;BME280_humidity;BME280_pressure;Samples;Min_cycle;Max_cycle;Signal;HPM_P1;HPM_P2
2021/12/23 00:02:04;;;;;;;9.13;3.58;;;-0.50;99.90;;;;;;10126932;28;84161;-58
2021/12/23 00:07:05;;;;;;;7.03;4.00;;;-0.30;99.90;;;;;;10125269;28;87038;-52
2021/12/23 00:12:06;;;;;;;6.50;4.07;;;-0.20;99.90;;;;;;10127109;28;85046;-53
2021/12/23 00:27:39;;;;;;;8.30;4.05;;;-0.30;99.90;;;;;;10127031;28;84893;-56
2021/12/23 00:32:40;;;;;;;6.50;3.80;;;-0.40;99.90;;;;;;10109003;28;85808;-54
2021/12/23 00:37:45;;;;;;;7.60;3.92;;;-0.20;99.90;;;;;;10125341;28;84881;-58
2021/12/23 00:42:45;;;;;;;8.52;4.22;;;-0.20;99.90;;;;;;10109112;28;85059;-56
2021/12/23 00:47:46;;;;;;;8.10;3.70;;;-0.20;99.90;;;;;;10125596;28;89459;-59
2021/12/23 00:52:54;;;;;;;8.35;4.18;;;-0.30;99.90;;;;;;10128019;28;85134;-56
2021/12/23 00:57:55;;;;;;;9.73;5.28;;;-0.40;99.90;;;;;;10132422;28;84604;-54
2021/12/23 01:02:59;;;;;;;9.02;4.45;;;-0.30;99.90;;;;;;10131230;28;85026;-53
2021/12/23 01:08:00;;;;;;;9.40;4.22;;;-0.20;99.90;;;;;;10146760;28;84999;-55
2021/12/23 01:13:03;;;;;;;5.45;2.97;;;-0.20;99.90;;;;;;10132148;28;84965;-54
2021/12/23 01:18:14;;;;;;;9.07;4.68;;;-0.20;99.90;;;;;;10131152;28;84946;-59
2021/12/23 01:23:15;;;;;;;10.15;4.70;;;-0.20;99.90;;;;;;10131470;28;85096;-56
2021/12/23 01:28:16;;;;;;;6.97;4.15;;;-0.10;99.90;;;;;;10131417;28;84789;-55
2021/12/23 01:33:17;;;;;;;5.28;3.03;;;-0.20;99.90;;;;;;10131184;28;84308;-58
2021/12/23 01:38:18;;;;;;;6.03;3.88;;;-0.20;99.90;;;;;;10130970;28;84339;-55
2021/12/23 01:43:19;;;;;;;7.63;4.10;;;-0.10;99.90;;;;;;10131256;28;84768;-55
2021/12/23 01:48:20;;;;;;;8.15;4.35;;;-0.10;99.90;;;;;;10129013;28;84933;-55
2021/12/23 01:53:21;;;;;;;5.57;3.45;;;0.00;99.90;;;;;;10129085;28;84050;-56
2021/12/23 01:58:21;;;;;;;7.97;4.85;;;-0.10;99.90;;;;;;10130856;28;84493;-56
2021/12/23 02:03:22;;;;;;;13.68;5.13;;;0.00;99.90;;;;;;10127458;28;86680;-57
2021/12/23 02:08:23;;;;;;;8.90;4.60;;;0.00;99.90;;;;;;10129876;28;84153;-52
2021/12/23 02:13:23;;;;;;;7.13;3.53;;;0.00;99.90;;;;;;10112552;28;87188;-55
2021/12/23 02:18:25;;;;;;;7.55;3.65;;;0.20;99.90;;;;;;10129394;28;84134;-57
2021/12/23 02:23:26;;;;;;;10.02;4.38;;;0.10;99.90;;;;;;10128521;28;85259;-57
2021/12/23 02:28:27;;;;;;;5.80;3.90;;;0.10;99.90;;;;;;10132181;28;85102;-56
2021/12/23 02:33:28;;;;;;;6.00;3.25;;;0.10;99.90;;;;;;10128281;28;84256;-60
2021/12/23 02:38:29;;;;;;;9.10;4.18;;;0.20;99.90;;;;;;10128682;28;85599;-56
2021/12/23 02:43:30;;;;;;;6.57;3.47;;;0.30;99.90;;;;;;10129332;28;84247;-56
2021/12/23 02:48:34;;;;;;;6.55;4.05;;;0.30;99.90;;;;;;10128948;28;84088;-57
2021/12/23 02:53:35;;;;;;;;;;;0.40;99.90;;;;;;10127411;28;85379;-60
2021/12/23 02:58:36;;;;;;;7.35;3.85;;;0.40;99.90;;;;;;10142916;28;85066;-57
2021/12/23 03:03:36;;;;;;;7.38;3.92;;;0.30;99.90;;;;;;10128605;28;84705;-57
2021/12/23 03:08:43;;;;;;;6.57;2.88;;;0.40;99.90;;;;;;10126738;28;85770;-57
2021/12/23 03:13:45;;;;;;;9.32;4.15;;;0.30;99.90;;;;;;10119127;28;84356;-57
2021/12/23 03:18:45;;;;;;;6.60;4.00;;;0.40;99.90;;;;;;10127294;28;84309;-57
2021/12/23 03:23:46;;;;;;;;;;;0.40;99.90;;;;;;10127285;28;84136;-57
2021/12/23 03:28:47;;;;;;;;;;;0.30;99.90;;;;;;10128065;28;84117;-57
2021/12/23 03:33:47;;;;;;;;;;;0.40;99.90;;;;;;10126006;28;85115;-55
2021/12/23 03:38:48;;;;;;;9.93;3.75;;;0.30;99.90;;;;;;10127780;28;84025;-55
2021/12/23 03:43:48;;;;;;;7.40;3.60;;;0.30;99.90;;;;;;10110491;28;85655;-52
2021/12/23 03:48:49;;;;;;;;;;;0.30;99.90;;;;;;10125364;28;86008;-57
2021/12/23 03:53:50;;;;;;;;;;;0.30;99.90;;;;;;10128150;28;84207;-59
2021/12/23 03:58:50;;;;;;;;;;;0.40;99.90;;;;;;10127674;28;85144;-57
2021/12/23 04:03:52;;;;;;;7.80;3.70;;;0.30;99.90;;;;;;10126595;28;84743;-55
2021/12/23 04:08:53;;;;;;;;;;;0.50;99.90;;;;;;10124122;28;86100;-58
2021/12/23 04:13:55;;;;;;;;;;;0.40;99.90;;;;;;10126667;28;85027;-56
2021/12/23 04:18:56;;;;;;;5.18;3.47;;;0.40;99.90;;;;;;10126642;28;84998;-57
2021/12/23 04:23:57;;;;;;;;;;;0.50;99.90;;;;;;10126933;28;85208;-52
2021/12/23 04:28:57;;;;;;;7.30;3.60;;;0.50;99.90;;;;;;10130189;28;85113;-51
2021/12/23 04:33:58;;;;;;;7.97;3.67;;;0.50;99.90;;;;;;10132469;28;84836;-55
2021/12/23 04:38:59;;;;;;;7.03;3.53;;;0.40;99.90;;;;;;10132904;28;84791;-56
2021/12/23 04:44:00;;;;;;;;;;;0.30;99.90;;;;;;10132650;28;84022;-52
2021/12/23 04:49:00;;;;;;;;;;;0.30;99.90;;;;;;10131174;28;84695;-56
2021/12/23 04:54:01;;;;;;;8.90;4.00;;;0.30;99.90;;;;;;10146332;28;85975;-56
2021/12/23 04:59:02;;;;;;;5.70;3.10;;;0.20;99.90;;;;;;10132122;28;85127;-55
2021/12/23 05:04:04;;;;;;;7.90;4.20;;;0.10;99.90;;;;;;10131881;28;84810;-55
2021/12/23 05:09:05;;;;;;;8.10;4.00;;;-0.10;99.90;;;;;;10144214;28;84874;-56
2021/12/23 05:14:05;;;;;;;5.90;3.03;;;0.00;99.90;;;;;;10128640;28;85276;-54
2021/12/23 05:19:06;;;;;;;8.77;4.10;;;0.00;99.90;;;;;;10125981;28;84796;-57
2021/12/23 05:24:07;;;;;;;6.40;3.40;;;-0.10;99.90;;;;;;10125699;28;85355;-57
2021/12/23 05:29:07;;;;;;;;;;;-0.10;99.90;;;;;;10128357;28;84944;-55
2021/12/23 05:34:08;;;;;;;;;;;-0.20;99.90;;;;;;10152175;23;84220;-56
2021/12/23 05:39:09;;;;;;;;;;;-0.40;99.90;;;;;;10132509;28;84266;-53
2021/12/23 05:44:10;;;;;;;4.50;3.30;;;-0.40;99.90;;;;;;10112228;28;84754;-56
2021/12/23 05:49:10;;;;;;;;;;;-0.20;99.90;;;;;;10087705;29;84206;-55
2021/12/23 05:54:11;;;;;;;;;;;-0.10;99.90;;;;;;10089570;28;86611;-56
2021/12/23 05:59:11;;;;;;;;;;;0.10;99.90;;;;;;10087373;28;85981;-55
2021/12/23 06:04:12;;;;;;;;;;;0.20;99.90;;;;;;10089678;28;84179;-51
2021/12/23 06:09:12;;;;;;;;;;;0.20;99.90;;;;;;10090227;29;84324;-53
2021/12/23 06:14:13;;;;;;;;;;;0.30;99.90;;;;;;10089926;28;85085;-56
2021/12/23 06:19:14;;;;;;;;;;;0.40;99.90;;;;;;10089844;28;84736;-54
2021/12/23 06:24:15;;;;;;;6.20;3.20;;;0.40;99.90;;;;;;10103503;28;85975;-57
2021/12/23 06:29:15;;;;;;;7.30;4.00;;;0.40;99.90;;;;;;10088595;28;84387;-52
2021/12/23 06:34:16;;;;;;;;;;;0.50;99.90;;;;;;10088170;28;84250;-57
2021/12/23 06:39:16;;;;;;;6.47;3.53;;;0.40;99.90;;;;;;10086606;29;86168;-54
2021/12/23 06:44:17;;;;;;;;;;;0.40;99.90;;;;;;10087511;29;84843;-56
2021/12/23 06:49:17;;;;;;;;;;;0.50;99.90;;;;;;10086899;28;84110;-55
2021/12/23 06:54:18;;;;;;;;;;;0.60;99.90;;;;;;10087298;29;84048;-54
2021/12/23 06:59:19;;;;;;;9.50;3.80;;;0.50;99.90;;;;;;10088166;28;84059;-52
2021/12/23 07:04:22;;;;;;;;;;;0.60;99.90;;;;;;10085966;28;84972;-56
2021/12/23 07:09:23;;;;;;;12.18;4.07;;;0.80;99.90;;;;;;10089601;28;84976;-57
2021/12/23 07:14:23;;;;;;;;;;;0.70;99.90;;;;;;10064830;29;84417;-56
2021/12/23 07:19:24;;;;;;;6.80;4.10;;;0.60;99.90;;;;;;10085743;28;84413;-57
2021/12/23 07:24:25;;;;;;;6.00;4.05;;;0.70;99.90;;;;;;10089692;28;84831;-57
2021/12/23 07:29:26;;;;;;;;;;;0.70;99.90;;;;;;10061502;29;87053;-56
2021/12/23 07:34:26;;;;;;;;;;;0.70;99.90;;;;;;10070269;29;84918;-55
2021/12/23 07:39:27;;;;;;;8.30;3.80;;;0.70;99.90;;;;;;10081793;28;84196;-57
2021/12/23 07:44:27;;;;;;;;;;;0.70;99.90;;;;;;10101381;28;84823;-59
2021/12/23 07:49:28;;;;;;;;;;;0.60;99.90;;;;;;10085571;28;84867;-54
2021/12/23 07:54:29;;;;;;;;;;;0.50;99.90;;;;;;10087545;29;85061;-55
2021/12/23 07:59:29;;;;;;;;;;;0.50;99.90;;;;;;10087263;28;84099;-54
2021/12/23 08:04:33;;;;;;;;;;;0.60;99.90;;;;;;10084495;29;85025;-54
2021/12/23 08:09:33;;;;;;;;;;;0.70;99.90;;;;;;10103593;28;84181;-55
2021/12/23 08:14:34;;;;;;;;;;;0.80;99.90;;;;;;10095684;28;84946;-54
2021/12/23 08:19:34;;;;;;;8.30;4.30;;;0.90;99.90;;;;;;10097722;28;84911;-54
2021/12/23 08:24:35;;;;;;;;;;;1.00;99.90;;;;;;10102352;28;85893;-52
2021/12/23 08:29:37;;;;;;;;;;;1.00;99.90;;;;;;10121919;28;85030;-54
2021/12/23 08:34:38;;;;;;;11.55;4.90;;;1.10;99.90;;;;;;10105459;28;84984;-57
2021/12/23 08:39:40;;;;;;;;;;;1.20;99.90;;;;;;10087807;28;84041;-57
2021/12/23 08:44:41;;;;;;;;;;;0.80;99.90;;;;;;10083792;28;84724;-54
2021/12/23 08:49:42;;;;;;;;;;;0.60;99.90;;;;;;10082203;28;84213;-55
2021/12/23 08:54:43;;;;;;;;;;;0.70;99.90;;;;;;10127879;28;85314;-53
2021/12/23 08:59:43;;;;;;;;;;;0.70;99.90;;;;;;10125284;28;84156;-57
2021/12/23 09:04:44;;;;;;;8.00;4.50;;;0.80;99.90;;;;;;10125964;28;85092;-54
2021/12/23 09:09:51;;;;;;;;;;;0.90;99.90;;;;;;10121791;28;84920;-57
2021/12/23 09:14:52;;;;;;;;;;;1.00;99.90;;;;;;10127074;28;84160;-56
2021/12/23 09:19:52;;;;;;;;;;;1.10;99.90;;;;;;10130641;28;84868;-57
2021/12/23 09:24:57;;;;;;;;;;;1.30;99.90;;;;;;10130685;28;84721;-58
2021/12/23 09:34:59;;;;;;;;;;;1.20;99.90;;;;;;10129941;28;84937;-55
2021/12/23 09:40:02;;;;;;;;;;;1.40;99.90;;;;;;10130488;28;84884;-51
2021/12/23 09:45:09;;;;;;;;;;;1.50;99.90;;;;;;10129893;28;84956;-56
2021/12/23 09:50:14;;;;;;;13.45;5.40;;;1.70;99.90;;;;;;10130794;28;84897;-53
2021/12/23 09:55:16;;;;;;;;;;;1.80;99.90;;;;;;10129445;28;84117;-55
2021/12/23 10:00:18;;;;;;;;;;;1.80;99.90;;;;;;10129906;28;84105;-58
2021/12/23 10:05:21;;;;;;;;;;;1.80;99.90;;;;;;10130397;28;85070;-54
2021/12/23 10:10:33;;;;;;;14.60;5.40;;;1.80;99.90;;;;;;10129209;28;84293;-56
2021/12/23 10:32:00;;;;;;;17.20;6.70;;;1.90;99.90;;;;;;10130627;28;84895;-55
2021/12/23 10:42:15;;;;;;;;;;;2.10;99.90;;;;;;10143731;28;85061;-54
2021/12/23 10:47:42;;;;;;;18.90;7.55;;;2.10;99.90;;;;;;10128644;28;85364;-56
2021/12/23 10:53:04;;;;;;;14.20;6.45;;;2.10;99.90;;;;;;10129071;28;85144;-52
2021/12/23 10:58:12;;;;;;;13.90;6.20;;;2.20;99.90;;;;;;10128898;28;84281;-55
2021/12/23 11:03:37;;;;;;;;;;;2.20;99.90;;;;;;10128535;28;84942;-55
2021/12/23 11:09:12;;;;;;;17.15;7.80;;;2.00;99.90;;;;;;10109209;28;85142;-57
2021/12/23 11:35:51;;;;;;;13.70;7.00;;;2.10;99.90;;;;;;10228809;23;84393;-53
2021/12/23 11:40:55;;;;;;;;;;;2.40;99.90;;;;;;10286813;28;85099;-52
2021/12/23 11:45:57;;;;;;;13.50;7.90;;;2.70;99.90;;;;;;10257442;28;85902;-53
2021/12/23 11:51:08;;;;;;;;;;;2.80;99.90;;;;;;10245162;28;86673;-50
2021/12/23 11:56:11;;;;;;;16.45;7.75;;;2.90;99.90;;;;;;10244446;28;85997;-55
2021/12/23 12:01:22;;;;;;;14.47;7.30;;;3.10;99.90;;;;;;10245314;28;85967;-53
2021/12/23 12:06:27;;;;;;;19.65;7.53;;;3.20;99.90;;;;;;10246332;28;85099;-50
2021/12/23 12:11:28;;;;;;;14.50;7.80;;;3.20;99.90;;;;;;10246544;28;85029;-51
2021/12/23 12:16:35;;;;;;;19.70;8.40;;;3.40;99.90;;;;;;10244835;28;84135;-52
2021/12/23 12:21:36;;;;;;;;;;;3.50;99.90;;;;;;10243877;28;84912;-54
2021/12/23 12:26:49;;;;;;;;;;;3.50;99.90;;;;;;10245124;28;84135;-50
2021/12/23 12:31:50;;;;;;;17.70;6.30;;;3.60;99.90;;;;;;10228401;28;85079;-51
2021/12/23 12:36:51;;;;;;;;;;;3.60;99.90;;;;;;10245012;28;84906;-49
2021/12/23 12:41:59;;;;;;;;;;;3.50;99.90;;;;;;10245648;28;84722;-51
2021/12/23 12:47:06;;;;;;;;;;;3.50;99.90;;;;;;10244474;28;85348;-50
2021/12/23 12:52:09;;;;;;;;;;;3.60;99.90;;;;;;10234801;28;87615;-50
2021/12/23 12:57:10;;;;;;;;;;;3.60;99.90;;;;;;10251070;28;85231;-51
2021/12/23 13:02:30;;;;;;;;;;;3.60;99.90;;;;;;10253694;28;84756;-51
2021/12/23 13:07:36;;;;;;;;;;;3.70;99.90;;;;;;10253312;28;86889;-51
2021/12/23 13:12:56;;;;;;;18.80;7.00;;;3.80;99.90;;;;;;10251945;28;85264;-51
2021/12/23 13:18:26;;;;;;;11.85;6.00;;;3.90;99.90;;;;;;10250867;28;84918;-49
2021/12/23 13:23:33;;;;;;;13.60;5.80;;;4.00;99.90;;;;;;10250139;28;84338;-48
2021/12/23 13:28:40;;;;;;;;;;;4.10;99.90;;;;;;10250186;28;84163;-52
2021/12/23 13:33:42;;;;;;;;;;;4.10;99.90;;;;;;10250245;28;85019;-47
2021/12/23 13:38:44;;;;;;;15.90;7.00;;;4.10;99.90;;;;;;10249452;28;84773;-50
2021/12/23 13:43:45;;;;;;;;;;;4.10;99.90;;;;;;10247996;28;87001;-49
2021/12/23 13:49:06;;;;;;;;;;;4.10;99.90;;;;;;10249704;28;84806;-50
2021/12/23 13:54:12;;;;;;;;;;;4.10;99.90;;;;;;10248685;28;84417;-49
2021/12/23 13:59:22;;;;;;;19.80;7.30;;;4.10;99.90;;;;;;10248672;28;86217;-51
2021/12/23 14:04:31;;;;;;;;;;;4.20;99.90;;;;;;10249220;28;85973;-54
2021/12/23 14:09:42;;;;;;;17.83;6.80;;;4.20;99.90;;;;;;10249921;28;84901;-51
2021/12/23 14:14:54;;;;;;;14.88;5.63;;;4.30;99.90;;;;;;10251506;28;84906;-52
2021/12/23 14:25:46;;;;;;;;;;;4.40;99.90;;;;;;10249725;28;84752;-48
2021/12/23 14:30:55;;;;;;;21.25;7.30;;;4.40;99.90;;;;;;10249519;28;84365;-48
2021/12/23 14:36:03;;;;;;;18.30;6.50;;;4.30;99.90;;;;;;10248766;28;85376;-50
2021/12/23 14:41:24;;;;;;;;;;;4.40;99.90;;;;;;10247817;28;85963;-47
2021/12/23 14:46:27;;;;;;;;;;;4.50;99.90;;;;;;10247579;28;84145;-51
2021/12/23 14:51:34;;;;;;;15.40;6.30;;;4.60;99.90;;;;;;10249757;28;84176;-51
2021/12/23 14:56:40;;;;;;;12.98;6.10;;;4.70;99.90;;;;;;10247924;28;84940;-51
2021/12/23 15:01:49;;;;;;;13.05;6.45;;;4.70;99.90;;;;;;10249048;28;84004;-52
2021/12/23 15:07:05;;;;;;;19.27;6.53;;;4.80;99.90;;;;;;10248582;28;84960;-49
2021/12/23 15:12:15;;;;;;;16.27;6.77;;;4.80;99.90;;;;;;10246834;28;85110;-51
2021/12/23 15:17:26;;;;;;;17.67;7.03;;;4.90;99.90;;;;;;10247554;28;85020;-53
2021/12/23 15:22:36;;;;;;;;;;;4.90;99.90;;;;;;10247488;28;84765;-48
2021/12/23 15:27:40;;;;;;;12.10;5.70;;;4.90;99.90;;;;;;10246383;28;84968;-53
2021/12/23 15:32:41;;;;;;;16.27;6.13;;;4.90;99.90;;;;;;10214013;28;86917;-49
2021/12/23 15:37:51;;;;;;;18.50;7.40;;;4.90;99.90;;;;;;10246739;28;84887;-48
2021/12/23 15:42:57;;;;;;;;;;;4.90;99.90;;;;;;10245382;28;86847;-48
2021/12/23 15:47:57;;;;;;;16.20;7.00;;;4.90;99.90;;;;;;10245317;28;84534;-48
2021/12/23 15:53:00;;;;;;;18.15;6.80;;;4.90;99.90;;;;;;10244878;28;84034;-50
2021/12/23 15:58:01;;;;;;;18.33;7.05;;;5.00;99.90;;;;;;10246610;28;85396;-49
2021/12/23 16:03:01;;;;;;;15.60;6.90;;;5.00;99.90;;;;;;10244220;28;86049;-52
2021/12/23 16:08:06;;;;;;;16.95;7.20;;;5.00;99.90;;;;;;10245679;28;84643;-48
2021/12/23 16:13:07;;;;;;;18.20;7.10;;;5.00;99.90;;;;;;10245788;28;84883;-51
2021/12/23 16:18:07;;;;;;;;;;;5.20;99.90;;;;;;10227635;28;86823;-48
2021/12/23 16:23:08;;;;;;;18.80;7.90;;;5.30;99.90;;;;;;10245499;28;86199;-50
2021/12/23 16:28:09;;;;;;;17.20;6.80;;;5.20;99.90;;;;;;10252376;28;85055;-55
2021/12/23 16:33:10;;;;;;;17.55;6.50;;;5.30;99.90;;;;;;10251964;28;84857;-49
2021/12/23 16:38:15;;;;;;;17.85;7.40;;;5.30;99.90;;;;;;10251217;28;84257;-48
2021/12/23 16:43:16;;;;;;;17.85;7.45;;;5.40;99.90;;;;;;10250109;28;85999;-54
2021/12/23 16:48:16;;;;;;;17.58;7.68;;;5.40;99.90;;;;;;10252104;28;84864;-48
2021/12/23 16:53:17;;;;;;;27.38;7.50;;;5.40;99.90;;;;;;10251408;28;84087;-50
2021/12/23 16:58:18;;;;;;;20.95;7.50;;;5.40;99.90;;;;;;10251712;28;85172;-49
2021/12/23 17:03:20;;;;;;;18.95;8.23;;;5.40;99.90;;;;;;10251945;28;84237;-50
2021/12/23 17:08:21;;;;;;;21.85;8.05;;;5.40;99.90;;;;;;10249765;28;85018;-53
2021/12/23 17:13:22;;;;;;;16.08;6.97;;;5.50;99.90;;;;;;10251797;28;84932;-49
2021/12/23 17:18:41;;;;;;;19.65;8.82;;;5.60;99.90;;;;;;10250366;28;84033;-51
2021/12/23 17:23:43;;;;;;;23.60;8.53;;;5.60;99.90;;;;;;10251144;28;84000;-48
2021/12/23 17:28:44;;;;;;;19.60;8.52;;;5.50;99.90;;;;;;10250251;28;84214;-53
2021/12/23 17:33:45;;;;;;;18.30;7.80;;;5.50;99.90;;;;;;10264636;23;84948;-47
2021/12/23 17:38:48;;;;;;;23.50;8.88;;;5.50;99.90;;;;;;10210105;28;84437;-51
2021/12/23 17:43:48;;;;;;;23.05;9.10;;;5.60;99.90;;;;;;10209880;28;84839;-51
2021/12/23 17:48:49;;;;;;;19.83;8.48;;;5.60;99.90;;;;;;10209247;28;84045;-49
2021/12/23 17:53:52;;;;;;;23.52;9.13;;;5.70;99.90;;;;;;10210395;28;85150;-48
2021/12/23 17:58:54;;;;;;;21.38;8.32;;;5.60;99.90;;;;;;10208100;28;85817;-49
2021/12/23 18:03:55;;;;;;;26.95;9.10;;;5.60;99.90;;;;;;10209569;28;84931;-51
2021/12/23 18:08:56;;;;;;;21.70;8.20;;;5.70;99.90;;;;;;10209599;28;84927;-51
2021/12/23 18:13:56;;;;;;;22.17;8.98;;;5.60;99.90;;;;;;10209676;28;85845;-49
2021/12/23 18:18:57;;;;;;;22.50;9.70;;;5.60;99.90;;;;;;10208969;28;84220;-47
2021/12/23 18:23:58;;;;;;;22.25;9.02;;;5.60;99.90;;;;;;10210269;28;84178;-47
2021/12/23 18:29:00;;;;;;;24.43;10.37;;;5.50;99.90;;;;;;10207534;28;84369;-47
2021/12/23 18:34:01;;;;;;;25.88;9.60;;;5.60;99.90;;;;;;10207245;28;83948;-48
2021/12/23 18:39:10;;;;;;;;;;;5.50;99.90;;;;;;10207523;28;84905;-48
2021/12/23 18:44:11;;;;;;;21.05;9.10;;;5.50;99.90;;;;;;10208069;28;85087;-51
2021/12/23 18:49:11;;;;;;;25.40;10.17;;;5.50;99.90;;;;;;10207011;28;84034;-49
2021/12/23 18:54:13;;;;;;;22.15;9.90;;;5.60;99.90;;;;;;10207937;28;84799;-48
2021/12/23 18:59:13;;;;;;;21.25;9.55;;;5.60;99.90;;;;;;10207895;28;84970;-51
2021/12/23 19:09:44;;;;;;;23.42;9.88;;;5.60;99.90;;;;;;10193781;28;84158;-47
2021/12/23 19:14:45;;;;;;;19.63;8.55;;;5.60;99.90;;;;;;10204998;28;85937;-50
2021/12/23 19:19:46;;;;;;;23.65;10.40;;;5.60;99.90;;;;;;10207293;28;84959;-50
2021/12/23 19:24:46;;;;;;;26.35;9.55;;;5.70;99.90;;;;;;10208528;28;84211;-47
2021/12/23 19:29:47;;;;;;;33.80;10.23;;;5.70;99.90;;;;;;10207542;28;84083;-47
2021/12/23 19:34:49;;;;;;;21.93;9.47;;;5.70;99.90;;;;;;10206732;28;85056;-48
2021/12/23 19:39:49;;;;;;;20.17;8.45;;;5.70;99.90;;;;;;10207226;28;85348;-52
2021/12/23 19:44:50;;;;;;;18.35;8.32;;;5.60;99.90;;;;;;10207348;28;85001;-48
2021/12/23 19:49:50;;;;;;;21.92;9.07;;;5.50;99.90;;;;;;10206484;28;84963;-47
2021/12/23 19:54:51;;;;;;;23.48;9.55;;;5.50;99.90;;;;;;10206847;28;84963;-48
2021/12/23 19:59:52;;;;;;;28.70;9.85;;;5.50;99.90;;;;;;10206425;28;84620;-48
2021/12/23 20:04:53;;;;;;;22.73;9.70;;;5.50;99.90;;;;;;10207219;28;84907;-48
2021/12/23 20:09:53;;;;;;;22.95;9.82;;;5.50;99.90;;;;;;10206924;28;83993;-48
2021/12/23 20:14:54;;;;;;;21.65;10.13;;;5.40;99.90;;;;;;10204372;28;84904;-46
2021/12/23 20:19:54;;;;;;;25.88;11.35;;;5.50;99.90;;;;;;10205322;28;84117;-47
2021/12/23 20:24:55;;;;;;;24.25;10.77;;;5.60;99.90;;;;;;10204505;28;84073;-47
2021/12/23 20:29:56;;;;;;;28.65;11.10;;;5.50;99.90;;;;;;10203433;28;85915;-48
2021/12/23 20:34:56;;;;;;;25.02;11.18;;;5.50;99.90;;;;;;10204271;28;84303;-48
2021/12/23 20:39:57;;;;;;;25.52;10.82;;;5.60;99.90;;;;;;10205326;28;84855;-48
2021/12/23 20:44:58;;;;;;;25.80;11.23;;;5.70;99.90;;;;;;10205228;28;84919;-48
2021/12/23 20:50:04;;;;;;;21.37;10.67;;;5.80;99.90;;;;;;10205028;28;85475;-48
2021/12/23 20:55:11;;;;;;;21.38;10.30;;;5.70;99.90;;;;;;10205189;28;84504;-46
2021/12/23 21:00:13;;;;;;;24.92;9.90;;;5.80;99.90;;;;;;10205386;28;84984;-48
2021/12/23 21:05:15;;;;;;;19.33;9.48;;;5.80;99.90;;;;;;10205954;28;84039;-47
2021/12/23 21:10:16;;;;;;;18.98;9.48;;;5.90;99.90;;;;;;10206870;28;84106;-48
2021/12/23 21:15:20;;;;;;;21.70;9.38;;;6.00;99.90;;;;;;10210867;28;84105;-47
2021/12/23 21:20:21;;;;;;;17.88;6.93;;;6.00;99.90;;;;;;10210633;28;84075;-47
2021/12/23 21:25:21;;;;;;;15.45;6.72;;;6.10;99.90;;;;;;10209831;28;83989;-46
2021/12/23 21:30:22;;;;;;;17.58;7.40;;;6.10;99.90;;;;;;10209792;28;84139;-48
2021/12/23 21:35:23;;;;;;;14.50;6.43;;;6.20;99.90;;;;;;10209074;28;84028;-48
2021/12/23 21:40:24;;;;;;;11.10;5.88;;;6.20;99.90;;;;;;10209993;28;84405;-49
2021/12/23 21:45:24;;;;;;;10.68;5.30;;;6.20;99.90;;;;;;10209119;28;84510;-47
2021/12/23 21:50:26;;;;;;;11.30;4.68;;;6.30;99.90;;;;;;10209274;28;85084;-47
2021/12/23 21:55:28;;;;;;;8.25;4.35;;;6.30;99.90;;;;;;10208439;28;84309;-50
2021/12/23 22:00:33;;;;;;;8.73;4.82;;;6.30;99.90;;;;;;10209066;28;83946;-47
2021/12/23 22:05:34;;;;;;;10.52;4.95;;;6.30;99.90;;;;;;10208534;28;84243;-49
2021/12/23 22:10:35;;;;;;;8.15;3.88;;;6.40;99.90;;;;;;10206539;28;86039;-47
2021/12/23 22:15:42;;;;;;;7.63;3.78;;;6.40;99.90;;;;;;10208106;28;84143;-48
2021/12/23 22:20:45;;;;;;;6.93;3.83;;;6.50;99.90;;;;;;10209099;28;84761;-51
2021/12/23 22:25:46;;;;;;;7.80;4.10;;;6.50;99.90;;;;;;10208746;28;84414;-48
2021/12/23 22:30:47;;;;;;;7.93;4.05;;;6.50;99.90;;;;;;10207773;28;85146;-47
2021/12/23 22:35:47;;;;;;;8.88;4.15;;;6.60;99.90;;;;;;10207438;28;84090;-49
2021/12/23 22:40:48;;;;;;;7.80;3.88;;;6.70;99.90;;;;;;10208240;28;84977;-48
2021/12/23 22:45:49;;;;;;;7.30;4.18;;;6.70;99.90;;;;;;10207187;28;84750;-47
2021/12/23 22:50:49;;;;;;;9.13;4.43;;;6.70;99.90;;;;;;10207410;28;84959;-45
2021/12/23 22:55:50;;;;;;;9.68;4.60;;;6.80;99.90;;;;;;10207088;28;84890;-46
2021/12/23 23:00:53;;;;;;;9.80;4.63;;;6.80;99.90;;;;;;10207686;28;84982;-47
2021/12/23 23:05:53;;;;;;;9.98;4.72;;;6.80;99.90;;;;;;10205141;28;84885;-47
2021/12/23 23:11:03;;;;;;;8.90;3.47;;;6.90;99.90;;;;;;10205957;28;84869;-50
2021/12/23 23:21:33;;;;;;;7.18;3.85;;;7.00;99.90;;;;;;10206237;28;85556;-49
2021/12/23 23:26:47;;;;;;;6.85;3.65;;;7.00;99.90;;;;;;10203653;28;84417;-50
2021/12/23 23:37:33;;;;;;;8.10;4.43;;;7.00;99.90;;;;;;10197395;23;84950;-50
2021/12/23 23:42:34;;;;;;;8.45;4.57;;;7.00;99.90;;;;;;10164278;28;87007;-50
2021/12/23 23:47:35;;;;;;;8.85;4.15;;;7.00;99.90;;;;;;10166929;28;84099;-49
2021/12/23 23:52:36;;;;;;;10.18;5.18;;;7.10;99.90;;;;;;10164985;28;84371;-51
2021/12/23 23:57:37;;;;;;;9.10;4.45;;;7.10;99.90;;;;;;10167277;28;86351;-52
